sensor_id;sensor_type;location;lat;lon;timestamp;P1;durP1;ratioP1;P2;durP2;ratioP2
34872;SDS011;21084;51.098;14.506;2023-02-03T00:01:08;71.22;;;25.30;;
34872;SDS011;21084;51.098;14.506;2023-02-03T00:03:37;65.68;;;24.95;;
34872;SDS011;21084;51.098;14.506;2023-02-03T00:06:06;63.97;;;24.85;;
34872;SDS011;21084;51.098;14.506;2023-02-03T00:08:35;61.30;;;24.63;;
34872;SDS011;21084;51.098;14.506;2023-02-03T00:11:06;67.32;;;24.85;;
34872;SDS011;21084;51.098;14.506;2023-02-03T00:13:34;58.22;;;24.55;;
34872;SDS011;21084;51.098;14.506;2023-02-03T00:16:04;58.90;;;23.73;;
34872;SDS011;21084;51.098;14.506;2023-02-03T00:18:33;54.92;;;23.52;;
34872;SDS011;21084;51.098;14.506;2023-02-03T00:21:01;70.45;;;25.95;;
34872;SDS011;21084;51.098;14.506;2023-02-03T00:23:30;66.07;;;26.17;;
34872;SDS011;21084;51.098;14.506;2023-02-03T00:26:06;67.43;;;26.67;;
34872;SDS011;21084;51.098;14.506;2023-02-03T00:28:35;64.28;;;26.33;;
34872;SDS011;21084;51.098;14.506;2023-02-03T00:31:04;70.43;;;27.90;;
34872;SDS011;21084;51.098;14.506;2023-02-03T00:33:32;72.23;;;26.87;;
34872;SDS011;21084;51.098;14.506;2023-02-03T00:36:03;58.63;;;24.42;;
34872;SDS011;21084;51.098;14.506;2023-02-03T00:38:32;60.35;;;24.88;;
34872;SDS011;21084;51.098;14.506;2023-02-03T00:41:01;52.83;;;22.55;;
34872;SDS011;21084;51.098;14.506;2023-02-03T00:43:30;61.08;;;23.45;;
34872;SDS011;21084;51.098;14.506;2023-02-03T00:45:59;56.92;;;24.63;;
34872;SDS011;21084;51.098;14.506;2023-02-03T00:48:28;62.15;;;22.80;;
34872;SDS011;21084;51.098;14.506;2023-02-03T00:50:56;56.13;;;22.20;;
34872;SDS011;21084;51.098;14.506;2023-02-03T00:53:25;48.65;;;21.63;;
34872;SDS011;21084;51.098;14.506;2023-02-03T00:55:53;55.45;;;22.02;;
34872;SDS011;21084;51.098;14.506;2023-02-03T00:58:22;58.63;;;23.02;;
34872;SDS011;21084;51.098;14.506;2023-02-03T01:00:52;53.28;;;21.98;;
34872;SDS011;21084;51.098;14.506;2023-02-03T01:03:21;59.30;;;23.50;;
34872;SDS011;21084;51.098;14.506;2023-02-03T01:05:50;66.97;;;22.92;;
34872;SDS011;21084;51.098;14.506;2023-02-03T01:08:18;49.70;;;20.63;;
34872;SDS011;21084;51.098;14.506;2023-02-03T01:10:47;58.53;;;23.45;;
34872;SDS011;21084;51.098;14.506;2023-02-03T01:13:15;46.10;;;20.27;;
34872;SDS011;21084;51.098;14.506;2023-02-03T01:15:44;54.25;;;19.95;;
34872;SDS011;21084;51.098;14.506;2023-02-03T01:18:15;58.17;;;20.08;;
34872;SDS011;21084;51.098;14.506;2023-02-03T01:20:43;59.38;;;20.50;;
34872;SDS011;21084;51.098;14.506;2023-02-03T01:23:12;43.70;;;19.52;;
34872;SDS011;21084;51.098;14.506;2023-02-03T01:25:40;54.17;;;20.00;;
34872;SDS011;21084;51.098;14.506;2023-02-03T01:28:09;49.53;;;19.60;;
34872;SDS011;21084;51.098;14.506;2023-02-03T01:30:37;61.67;;;19.17;;
34872;SDS011;21084;51.098;14.506;2023-02-03T01:33:06;53.47;;;17.60;;
34872;SDS011;21084;51.098;14.506;2023-02-03T01:35:35;52.03;;;18.48;;
34872;SDS011;21084;51.098;14.506;2023-02-03T01:38:04;46.97;;;18.15;;
34872;SDS011;21084;51.098;14.506;2023-02-03T01:40:33;36.43;;;15.87;;
34872;SDS011;21084;51.098;14.506;2023-02-03T01:43:08;50.55;;;16.42;;
34872;SDS011;21084;51.098;14.506;2023-02-03T01:45:37;40.33;;;15.00;;
34872;SDS011;21084;51.098;14.506;2023-02-03T01:50:37;39.47;;;14.52;;
34872;SDS011;21084;51.098;14.506;2023-02-03T01:53:06;33.03;;;13.52;;
34872;SDS011;21084;51.098;14.506;2023-02-03T01:55:38;39.00;;;12.13;;
34872;SDS011;21084;51.098;14.506;2023-02-03T01:58:11;42.10;;;12.55;;
34872;SDS011;21084;51.098;14.506;2023-02-03T02:00:41;38.78;;;12.82;;
34872;SDS011;21084;51.098;14.506;2023-02-03T02:03:10;37.92;;;11.48;;
34872;SDS011;21084;51.098;14.506;2023-02-03T02:08:14;27.80;;;10.48;;
34872;SDS011;21084;51.098;14.506;2023-02-03T02:10:45;30.83;;;11.18;;
34872;SDS011;21084;51.098;14.506;2023-02-03T02:13:14;33.67;;;10.57;;
34872;SDS011;21084;51.098;14.506;2023-02-03T02:15:47;31.98;;;10.70;;
34872;SDS011;21084;51.098;14.506;2023-02-03T02:18:27;26.42;;;10.52;;
34872;SDS011;21084;51.098;14.506;2023-02-03T02:24:11;35.47;;;11.30;;
34872;SDS011;21084;51.098;14.506;2023-02-03T02:27:02;29.25;;;11.10;;
34872;SDS011;21084;51.098;14.506;2023-02-03T02:32:46;28.42;;;10.38;;
34872;SDS011;21084;51.098;14.506;2023-02-03T02:35:35;22.38;;;11.75;;
34872;SDS011;21084;51.098;14.506;2023-02-03T02:38:19;25.73;;;10.20;;
34872;SDS011;21084;51.098;14.506;2023-02-03T02:40:53;20.52;;;10.20;;
34872;SDS011;21084;51.098;14.506;2023-02-03T02:43:27;20.23;;;10.82;;
34872;SDS011;21084;51.098;14.506;2023-02-03T02:46:04;24.33;;;10.35;;
34872;SDS011;21084;51.098;14.506;2023-02-03T02:48:39;22.90;;;10.27;;
34872;SDS011;21084;51.098;14.506;2023-02-03T02:51:12;32.25;;;10.35;;
34872;SDS011;21084;51.098;14.506;2023-02-03T02:53:43;19.20;;;10.27;;
34872;SDS011;21084;51.098;14.506;2023-02-03T02:56:14;23.17;;;10.80;;
34872;SDS011;21084;51.098;14.506;2023-02-03T02:58:46;13.68;;;8.25;;
34872;SDS011;21084;51.098;14.506;2023-02-03T03:01:16;17.88;;;8.45;;
34872;SDS011;21084;51.098;14.506;2023-02-03T03:03:46;19.80;;;8.50;;
34872;SDS011;21084;51.098;14.506;2023-02-03T03:13:45;11.93;;;6.82;;
34872;SDS011;21084;51.098;14.506;2023-02-03T03:16:19;12.45;;;6.95;;
34872;SDS011;21084;51.098;14.506;2023-02-03T03:18:53;13.20;;;7.22;;
34872;SDS011;21084;51.098;14.506;2023-02-03T03:21:27;9.70;;;6.40;;
34872;SDS011;21084;51.098;14.506;2023-02-03T03:24:00;12.05;;;6.53;;
34872;SDS011;21084;51.098;14.506;2023-02-03T03:26:34;9.70;;;6.18;;
34872;SDS011;21084;51.098;14.506;2023-02-03T03:29:10;10.98;;;6.57;;
34872;SDS011;21084;51.098;14.506;2023-02-03T03:31:42;10.15;;;5.30;;
34872;SDS011;21084;51.098;14.506;2023-02-03T03:34:14;11.93;;;5.53;;
34872;SDS011;21084;51.098;14.506;2023-02-03T03:36:45;8.10;;;4.72;;
34872;SDS011;21084;51.098;14.506;2023-02-03T03:39:20;7.85;;;4.93;;
34872;SDS011;21084;51.098;14.506;2023-02-03T03:41:56;6.13;;;3.75;;
34872;SDS011;21084;51.098;14.506;2023-02-03T03:44:30;6.28;;;4.30;;
34872;SDS011;21084;51.098;14.506;2023-02-03T03:47:05;7.47;;;4.28;;
34872;SDS011;21084;51.098;14.506;2023-02-03T03:49:40;7.50;;;3.60;;
34872;SDS011;21084;51.098;14.506;2023-02-03T03:52:14;5.80;;;3.63;;
34872;SDS011;21084;51.098;14.506;2023-02-03T03:54:46;5.78;;;3.35;;
34872;SDS011;21084;51.098;14.506;2023-02-03T03:57:18;5.32;;;3.00;;
34872;SDS011;21084;51.098;14.506;2023-02-03T03:59:52;4.90;;;3.00;;
34872;SDS011;21084;51.098;14.506;2023-02-03T04:02:21;3.58;;;2.95;;
34872;SDS011;21084;51.098;14.506;2023-02-03T04:07:21;3.97;;;2.60;;
34872;SDS011;21084;51.098;14.506;2023-02-03T04:12:20;2.72;;;2.28;;
34872;SDS011;21084;51.098;14.506;2023-02-03T04:14:50;3.90;;;2.20;;
34872;SDS011;21084;51.098;14.506;2023-02-03T04:17:19;3.15;;;2.47;;
34872;SDS011;21084;51.098;14.506;2023-02-03T04:19:47;6.47;;;2.90;;
34872;SDS011;21084;51.098;14.506;2023-02-03T04:22:18;4.37;;;2.20;;
34872;SDS011;21084;51.098;14.506;2023-02-03T04:24:47;3.42;;;2.25;;
34872;SDS011;21084;51.098;14.506;2023-02-03T04:27:15;4.35;;;2.20;;
34872;SDS011;21084;51.098;14.506;2023-02-03T04:29:43;3.20;;;2.35;;
34872;SDS011;21084;51.098;14.506;2023-02-03T04:32:13;6.43;;;2.50;;
34872;SDS011;21084;51.098;14.506;2023-02-03T04:34:42;3.67;;;2.45;;
34872;SDS011;21084;51.098;14.506;2023-02-03T04:37:10;6.45;;;2.60;;
34872;SDS011;21084;51.098;14.506;2023-02-03T04:39:40;3.67;;;2.65;;
34872;SDS011;21084;51.098;14.506;2023-02-03T04:44:37;6.10;;;3.28;;
34872;SDS011;21084;51.098;14.506;2023-02-03T04:47:06;5.90;;;3.25;;
34872;SDS011;21084;51.098;14.506;2023-02-03T04:49:34;7.35;;;3.92;;
34872;SDS011;21084;51.098;14.506;2023-02-03T04:52:03;6.30;;;4.20;;
34872;SDS011;21084;51.098;14.506;2023-02-03T04:54:32;5.67;;;4.20;;
34872;SDS011;21084;51.098;14.506;2023-02-03T04:57:02;6.97;;;4.10;;
34872;SDS011;21084;51.098;14.506;2023-02-03T04:59:31;6.60;;;4.43;;
34872;SDS011;21084;51.098;14.506;2023-02-03T05:02:00;8.27;;;5.07;;
34872;SDS011;21084;51.098;14.506;2023-02-03T05:06:58;7.43;;;4.55;;
34872;SDS011;21084;51.098;14.506;2023-02-03T05:09:27;7.93;;;4.65;;
34872;SDS011;21084;51.098;14.506;2023-02-03T05:11:55;9.10;;;5.50;;
34872;SDS011;21084;51.098;14.506;2023-02-03T05:14:25;9.30;;;5.80;;
34872;SDS011;21084;51.098;14.506;2023-02-03T05:19:22;11.68;;;6.70;;
34872;SDS011;21084;51.098;14.506;2023-02-03T05:21:51;11.82;;;6.50;;
34872;SDS011;21084;51.098;14.506;2023-02-03T05:24:19;14.15;;;7.45;;
34872;SDS011;21084;51.098;14.506;2023-02-03T05:26:48;11.55;;;7.82;;
34872;SDS011;21084;51.098;14.506;2023-02-03T05:29:16;12.60;;;7.95;;
34872;SDS011;21084;51.098;14.506;2023-02-03T05:31:46;16.77;;;9.40;;
34872;SDS011;21084;51.098;14.506;2023-02-03T05:34:15;18.15;;;10.35;;
34872;SDS011;21084;51.098;14.506;2023-02-03T05:36:44;23.77;;;12.30;;
34872;SDS011;21084;51.098;14.506;2023-02-03T05:39:13;24.30;;;12.53;;
34872;SDS011;21084;51.098;14.506;2023-02-03T05:41:42;24.13;;;13.25;;
34872;SDS011;21084;51.098;14.506;2023-02-03T05:44:19;23.73;;;12.82;;
34872;SDS011;21084;51.098;14.506;2023-02-03T05:46:50;25.30;;;13.00;;
34872;SDS011;21084;51.098;14.506;2023-02-03T05:49:21;22.48;;;12.73;;
34872;SDS011;21084;51.098;14.506;2023-02-03T05:51:50;22.85;;;12.70;;
34872;SDS011;21084;51.098;14.506;2023-02-03T05:56:48;23.13;;;12.43;;
34872;SDS011;21084;51.098;14.506;2023-02-03T05:59:16;26.00;;;13.53;;
34872;SDS011;21084;51.098;14.506;2023-02-03T06:01:45;21.38;;;12.35;;
34872;SDS011;21084;51.098;14.506;2023-02-03T06:04:16;23.42;;;12.35;;
34872;SDS011;21084;51.098;14.506;2023-02-03T06:06:44;20.30;;;11.27;;
34872;SDS011;21084;51.098;14.506;2023-02-03T06:09:13;20.95;;;12.40;;
34872;SDS011;21084;51.098;14.506;2023-02-03T06:11:42;20.33;;;11.10;;
34872;SDS011;21084;51.098;14.506;2023-02-03T06:14:11;16.13;;;9.35;;
34872;SDS011;21084;51.098;14.506;2023-02-03T06:16:40;20.25;;;11.18;;
34872;SDS011;21084;51.098;14.506;2023-02-03T06:19:09;15.55;;;9.80;;
34872;SDS011;21084;51.098;14.506;2023-02-03T06:24:08;18.05;;;10.95;;
34872;SDS011;21084;51.098;14.506;2023-02-03T06:26:37;12.98;;;8.80;;
34872;SDS011;21084;51.098;14.506;2023-02-03T06:29:06;15.38;;;9.52;;
34872;SDS011;21084;51.098;14.506;2023-02-03T06:31:35;30.55;;;22.75;;
34872;SDS011;21084;51.098;14.506;2023-02-03T06:34:03;17.65;;;10.45;;
34872;SDS011;21084;51.098;14.506;2023-02-03T06:36:32;15.45;;;9.57;;
34872;SDS011;21084;51.098;14.506;2023-02-03T06:39:02;15.40;;;9.82;;
34872;SDS011;21084;51.098;14.506;2023-02-03T06:41:30;20.70;;;11.32;;
34872;SDS011;21084;51.098;14.506;2023-02-03T06:43:59;15.27;;;9.65;;
34872;SDS011;21084;51.098;14.506;2023-02-03T06:46:28;18.40;;;11.07;;
34872;SDS011;21084;51.098;14.506;2023-02-03T06:48:58;18.33;;;11.38;;
34872;SDS011;21084;51.098;14.506;2023-02-03T06:51:26;20.25;;;10.70;;
34872;SDS011;21084;51.098;14.506;2023-02-03T06:53:55;16.97;;;9.97;;
34872;SDS011;21084;51.098;14.506;2023-02-03T06:56:27;15.18;;;9.32;;
34872;SDS011;21084;51.098;14.506;2023-02-03T07:01:24;26.98;;;12.15;;
34872;SDS011;21084;51.098;14.506;2023-02-03T07:03:53;19.77;;;12.30;;
34872;SDS011;21084;51.098;14.506;2023-02-03T07:06:23;23.05;;;11.05;;
34872;SDS011;21084;51.098;14.506;2023-02-03T07:08:54;19.65;;;11.57;;
34872;SDS011;21084;51.098;14.506;2023-02-03T07:11:27;19.50;;;10.52;;
34872;SDS011;21084;51.098;14.506;2023-02-03T07:13:56;20.33;;;12.10;;
34872;SDS011;21084;51.098;14.506;2023-02-03T07:16:25;24.23;;;11.83;;
34872;SDS011;21084;51.098;14.506;2023-02-03T07:18:54;20.73;;;11.38;;
34872;SDS011;21084;51.098;14.506;2023-02-03T07:21:23;20.30;;;10.98;;
34872;SDS011;21084;51.098;14.506;2023-02-03T07:23:52;16.92;;;10.52;;
34872;SDS011;21084;51.098;14.506;2023-02-03T07:26:20;19.48;;;10.32;;
34872;SDS011;21084;51.098;14.506;2023-02-03T07:28:52;15.70;;;10.07;;
34872;SDS011;21084;51.098;14.506;2023-02-03T07:31:21;18.25;;;9.95;;
34872;SDS011;21084;51.098;14.506;2023-02-03T07:33:50;16.42;;;9.38;;
34872;SDS011;21084;51.098;14.506;2023-02-03T07:36:18;19.98;;;11.00;;
34872;SDS011;21084;51.098;14.506;2023-02-03T07:38:46;19.48;;;10.82;;
34872;SDS011;21084;51.098;14.506;2023-02-03T07:41:15;19.20;;;10.75;;
34872;SDS011;21084;51.098;14.506;2023-02-03T07:43:44;17.58;;;10.70;;
34872;SDS011;21084;51.098;14.506;2023-02-03T07:46:14;15.65;;;10.15;;
34872;SDS011;21084;51.098;14.506;2023-02-03T07:48:43;18.67;;;10.80;;
34872;SDS011;21084;51.098;14.506;2023-02-03T07:51:12;18.08;;;9.88;;
34872;SDS011;21084;51.098;14.506;2023-02-03T07:53:40;14.95;;;8.93;;
34872;SDS011;21084;51.098;14.506;2023-02-03T07:56:08;18.13;;;9.77;;
34872;SDS011;21084;51.098;14.506;2023-02-03T07:58:38;18.67;;;9.45;;
34872;SDS011;21084;51.098;14.506;2023-02-03T08:01:10;16.55;;;9.45;;
34872;SDS011;21084;51.098;14.506;2023-02-03T08:03:42;19.25;;;9.50;;
34872;SDS011;21084;51.098;14.506;2023-02-03T08:06:11;15.13;;;9.07;;
34872;SDS011;21084;51.098;14.506;2023-02-03T08:08:39;20.52;;;10.10;;
34872;SDS011;21084;51.098;14.506;2023-02-03T08:11:08;17.70;;;9.80;;
34872;SDS011;21084;51.098;14.506;2023-02-03T08:13:36;14.88;;;8.77;;
34872;SDS011;21084;51.098;14.506;2023-02-03T08:16:05;20.25;;;10.10;;
34872;SDS011;21084;51.098;14.506;2023-02-03T08:18:34;15.52;;;9.38;;
34872;SDS011;21084;51.098;14.506;2023-02-03T08:21:04;16.85;;;9.98;;
34872;SDS011;21084;51.098;14.506;2023-02-03T08:23:33;16.45;;;9.50;;
34872;SDS011;21084;51.098;14.506;2023-02-03T08:26:01;15.18;;;8.57;;
34872;SDS011;21084;51.098;14.506;2023-02-03T08:28:30;18.23;;;9.40;;
34872;SDS011;21084;51.098;14.506;2023-02-03T08:30:59;13.18;;;7.50;;
34872;SDS011;21084;51.098;14.506;2023-02-03T08:33:27;13.02;;;8.02;;
34872;SDS011;21084;51.098;14.506;2023-02-03T08:35:56;12.07;;;6.93;;
34872;SDS011;21084;51.098;14.506;2023-02-03T08:38:28;11.05;;;6.72;;
34872;SDS011;21084;51.098;14.506;2023-02-03T08:40:57;15.07;;;8.15;;
34872;SDS011;21084;51.098;14.506;2023-02-03T08:43:26;12.60;;;7.27;;
34872;SDS011;21084;51.098;14.506;2023-02-03T08:45:54;13.98;;;7.35;;
34872;SDS011;21084;51.098;14.506;2023-02-03T08:48:23;7.80;;;5.30;;
34872;SDS011;21084;51.098;14.506;2023-02-03T08:50:51;7.40;;;4.93;;
34872;SDS011;21084;51.098;14.506;2023-02-03T08:53:20;10.15;;;5.70;;
34872;SDS011;21084;51.098;14.506;2023-02-03T08:55:50;10.10;;;5.40;;
34872;SDS011;21084;51.098;14.506;2023-02-03T08:58:19;12.65;;;5.85;;
34872;SDS011;21084;51.098;14.506;2023-02-03T09:00:48;8.55;;;5.28;;
34872;SDS011;21084;51.098;14.506;2023-02-03T09:03:19;8.27;;;4.80;;
34872;SDS011;21084;51.098;14.506;2023-02-03T09:05:47;9.55;;;5.10;;
34872;SDS011;21084;51.098;14.506;2023-02-03T09:08:16;8.35;;;5.25;;
34872;SDS011;21084;51.098;14.506;2023-02-03T09:10:45;7.82;;;4.95;;
34872;SDS011;21084;51.098;14.506;2023-02-03T09:13:15;7.97;;;4.07;;
34872;SDS011;21084;51.098;14.506;2023-02-03T09:15:43;7.13;;;3.78;;
34872;SDS011;21084;51.098;14.506;2023-02-03T09:18:12;7.93;;;4.22;;
34872;SDS011;21084;51.098;14.506;2023-02-03T09:20:41;7.68;;;4.38;;
34872;SDS011;21084;51.098;14.506;2023-02-03T09:23:09;8.23;;;4.57;;
34872;SDS011;21084;51.098;14.506;2023-02-03T09:25:38;8.25;;;3.83;;
34872;SDS011;21084;51.098;14.506;2023-02-03T09:28:10;6.97;;;4.85;;
34872;SDS011;21084;51.098;14.506;2023-02-03T09:30:40;7.07;;;4.60;;
34872;SDS011;21084;51.098;14.506;2023-02-03T09:35:36;8.65;;;4.63;;
34872;SDS011;21084;51.098;14.506;2023-02-03T09:38:06;7.90;;;5.03;;
34872;SDS011;21084;51.098;14.506;2023-02-03T09:40:34;7.93;;;4.20;;
34872;SDS011;21084;51.098;14.506;2023-02-03T09:43:11;9.85;;;5.07;;
34872;SDS011;21084;51.098;14.506;2023-02-03T09:45:48;7.72;;;4.60;;
34872;SDS011;21084;51.098;14.506;2023-02-03T09:48:17;6.85;;;4.78;;
34872;SDS011;21084;51.098;14.506;2023-02-03T09:50:51;7.45;;;4.35;;
34872;SDS011;21084;51.098;14.506;2023-02-03T09:53:24;26.00;;;14.85;;
34872;SDS011;21084;51.098;14.506;2023-02-03T09:55:57;30.65;;;18.77;;
34872;SDS011;21084;51.098;14.506;2023-02-03T09:58:27;14.45;;;8.45;;
34872;SDS011;21084;51.098;14.506;2023-02-03T10:01:01;7.82;;;4.90;;
34872;SDS011;21084;51.098;14.506;2023-02-03T10:03:35;12.20;;;4.97;;
34872;SDS011;21084;51.098;14.506;2023-02-03T10:06:12;7.45;;;4.18;;
34872;SDS011;21084;51.098;14.506;2023-02-03T10:08:51;5.50;;;4.10;;
34872;SDS011;21084;51.098;14.506;2023-02-03T10:11:37;7.60;;;3.92;;
34872;SDS011;21084;51.098;14.506;2023-02-03T10:14:22;6.40;;;3.90;;
34872;SDS011;21084;51.098;14.506;2023-02-03T10:17:07;8.52;;;3.95;;
34872;SDS011;21084;51.098;14.506;2023-02-03T10:19:47;8.75;;;3.30;;
34872;SDS011;21084;51.098;14.506;2023-02-03T10:22:22;7.50;;;4.40;;
34872;SDS011;21084;51.098;14.506;2023-02-03T10:24:55;5.65;;;3.65;;
34872;SDS011;21084;51.098;14.506;2023-02-03T10:27:27;8.05;;;4.15;;
34872;SDS011;21084;51.098;14.506;2023-02-03T10:29:58;8.45;;;4.30;;
34872;SDS011;21084;51.098;14.506;2023-02-03T10:32:32;7.82;;;4.07;;
34872;SDS011;21084;51.098;14.506;2023-02-03T10:35:01;6.45;;;4.63;;
34872;SDS011;21084;51.098;14.506;2023-02-03T10:37:32;10.52;;;5.25;;
34872;SDS011;21084;51.098;14.506;2023-02-03T10:40:05;14.60;;;8.02;;
34872;SDS011;21084;51.098;14.506;2023-02-03T10:42:38;18.75;;;10.93;;
34872;SDS011;21084;51.098;14.506;2023-02-03T10:45:24;14.05;;;6.20;;
34872;SDS011;21084;51.098;14.506;2023-02-03T10:47:54;12.10;;;5.88;;
34872;SDS011;21084;51.098;14.506;2023-02-03T10:50:24;7.82;;;4.18;;
34872;SDS011;21084;51.098;14.506;2023-02-03T10:55:49;11.07;;;4.65;;
34872;SDS011;21084;51.098;14.506;2023-02-03T10:58:28;8.00;;;4.40;;
34872;SDS011;21084;51.098;14.506;2023-02-03T11:01:04;9.10;;;4.68;;
34872;SDS011;21084;51.098;14.506;2023-02-03T11:03:37;6.18;;;4.03;;
34872;SDS011;21084;51.098;14.506;2023-02-03T11:06:09;11.57;;;5.22;;
34872;SDS011;21084;51.098;14.506;2023-02-03T11:08:40;5.28;;;3.53;;
34872;SDS011;21084;51.098;14.506;2023-02-03T11:11:12;6.22;;;3.97;;
34872;SDS011;21084;51.098;14.506;2023-02-03T11:13:42;5.70;;;3.35;;
34872;SDS011;21084;51.098;14.506;2023-02-03T11:16:12;5.40;;;3.17;;
34872;SDS011;21084;51.098;14.506;2023-02-03T11:18:52;5.13;;;3.38;;
34872;SDS011;21084;51.098;14.506;2023-02-03T11:26:28;4.78;;;3.17;;
34872;SDS011;21084;51.098;14.506;2023-02-03T11:29:01;6.72;;;3.30;;
34872;SDS011;21084;51.098;14.506;2023-02-03T11:31:34;6.85;;;3.65;;
34872;SDS011;21084;51.098;14.506;2023-02-03T11:34:05;5.20;;;3.40;;
34872;SDS011;21084;51.098;14.506;2023-02-03T11:36:43;12.05;;;6.95;;
34872;SDS011;21084;51.098;14.506;2023-02-03T11:39:16;9.17;;;4.97;;
34872;SDS011;21084;51.098;14.506;2023-02-03T11:41:55;4.38;;;3.10;;
34872;SDS011;21084;51.098;14.506;2023-02-03T11:44:24;7.28;;;3.83;;
34872;SDS011;21084;51.098;14.506;2023-02-03T11:46:57;8.90;;;3.63;;
34872;SDS011;21084;51.098;14.506;2023-02-03T11:49:37;6.65;;;4.40;;
34872;SDS011;21084;51.098;14.506;2023-02-03T11:52:37;6.00;;;3.78;;
34872;SDS011;21084;51.098;14.506;2023-02-03T11:55:24;5.68;;;3.35;;
34872;SDS011;21084;51.098;14.506;2023-02-03T11:58:04;6.28;;;3.72;;
34872;SDS011;21084;51.098;14.506;2023-02-03T12:00:56;8.23;;;3.33;;
34872;SDS011;21084;51.098;14.506;2023-02-03T12:03:46;6.28;;;3.45;;
34872;SDS011;21084;51.098;14.506;2023-02-03T12:09:29;8.07;;;3.78;;
34872;SDS011;21084;51.098;14.506;2023-02-03T12:12:12;5.63;;;3.60;;
34872;SDS011;21084;51.098;14.506;2023-02-03T12:15:09;4.65;;;3.15;;
34872;SDS011;21084;51.098;14.506;2023-02-03T12:18:04;8.95;;;4.75;;
34872;SDS011;21084;51.098;14.506;2023-02-03T12:20:48;6.47;;;4.32;;
34872;SDS011;21084;51.098;14.506;2023-02-03T12:23:32;6.95;;;3.70;;
34872;SDS011;21084;51.098;14.506;2023-02-03T12:26:12;4.97;;;3.42;;
34872;SDS011;21084;51.098;14.506;2023-02-03T12:28:49;7.68;;;4.28;;
34872;SDS011;21084;51.098;14.506;2023-02-03T12:31:26;6.53;;;3.95;;
34872;SDS011;21084;51.098;14.506;2023-02-03T12:34:02;8.90;;;3.63;;
34872;SDS011;21084;51.098;14.506;2023-02-03T12:39:13;4.25;;;2.92;;
34872;SDS011;21084;51.098;14.506;2023-02-03T12:41:47;6.68;;;3.90;;
34872;SDS011;21084;51.098;14.506;2023-02-03T12:44:19;6.38;;;3.20;;
34872;SDS011;21084;51.098;14.506;2023-02-03T12:46:54;4.03;;;3.20;;
34872;SDS011;21084;51.098;14.506;2023-02-03T12:49:30;7.18;;;3.22;;
34872;SDS011;21084;51.098;14.506;2023-02-03T12:52:10;7.90;;;3.75;;
34872;SDS011;21084;51.098;14.506;2023-02-03T12:54:48;6.18;;;3.30;;
34872;SDS011;21084;51.098;14.506;2023-02-03T12:57:23;7.13;;;3.55;;
34872;SDS011;21084;51.098;14.506;2023-02-03T13:00:00;5.53;;;3.72;;
34872;SDS011;21084;51.098;14.506;2023-02-03T13:02:41;8.15;;;3.70;;
34872;SDS011;21084;51.098;14.506;2023-02-03T13:05:16;5.85;;;3.70;;
34872;SDS011;21084;51.098;14.506;2023-02-03T13:07:51;7.43;;;3.50;;
34872;SDS011;21084;51.098;14.506;2023-02-03T13:10:28;6.28;;;3.83;;
34872;SDS011;21084;51.098;14.506;2023-02-03T13:13:04;18.17;;;3.13;;
34872;SDS011;21084;51.098;14.506;2023-02-03T13:15:36;17.83;;;2.85;;
34872;SDS011;21084;51.098;14.506;2023-02-03T13:18:09;19.73;;;3.40;;
34872;SDS011;21084;51.098;14.506;2023-02-03T13:20:45;30.08;;;3.47;;
34872;SDS011;21084;51.098;14.506;2023-02-03T13:23:14;24.17;;;3.13;;
34872;SDS011;21084;51.098;14.506;2023-02-03T13:25:48;17.50;;;2.47;;
34872;SDS011;21084;51.098;14.506;2023-02-03T13:28:32;22.00;;;3.38;;
34872;SDS011;21084;51.098;14.506;2023-02-03T13:31:17;26.67;;;4.22;;
34872;SDS011;21084;51.098;14.506;2023-02-03T13:34:05;17.58;;;3.00;;
34872;SDS011;21084;51.098;14.506;2023-02-03T13:37:19;21.60;;;3.42;;
34872;SDS011;21084;51.098;14.506;2023-02-03T13:40:08;21.85;;;4.07;;
34872;SDS011;21084;51.098;14.506;2023-02-03T13:42:46;28.35;;;3.85;;
34872;SDS011;21084;51.098;14.506;2023-02-03T13:45:23;23.25;;;3.50;;
34872;SDS011;21084;51.098;14.506;2023-02-03T13:47:56;27.40;;;4.28;;
34872;SDS011;21084;51.098;14.506;2023-02-03T13:50:33;33.13;;;3.80;;
34872;SDS011;21084;51.098;14.506;2023-02-03T13:53:03;26.67;;;3.90;;
34872;SDS011;21084;51.098;14.506;2023-02-03T13:55:36;36.05;;;4.70;;
34872;SDS011;21084;51.098;14.506;2023-02-03T13:58:18;32.50;;;4.28;;
34872;SDS011;21084;51.098;14.506;2023-02-03T14:00:58;30.08;;;4.55;;
34872;SDS011;21084;51.098;14.506;2023-02-03T14:03:46;26.63;;;3.97;;
34872;SDS011;21084;51.098;14.506;2023-02-03T14:09:27;43.33;;;4.32;;
34872;SDS011;21084;51.098;14.506;2023-02-03T14:15:18;17.52;;;4.53;;
34872;SDS011;21084;51.098;14.506;2023-02-03T14:17:59;39.40;;;5.65;;
34872;SDS011;21084;51.098;14.506;2023-02-03T14:20:33;31.95;;;4.53;;
34872;SDS011;21084;51.098;14.506;2023-02-03T14:23:18;24.38;;;3.85;;
34872;SDS011;21084;51.098;14.506;2023-02-03T14:25:57;19.98;;;3.75;;
34872;SDS011;21084;51.098;14.506;2023-02-03T14:28:28;18.95;;;3.95;;
34872;SDS011;21084;51.098;14.506;2023-02-03T14:31:16;19.58;;;3.38;;
34872;SDS011;21084;51.098;14.506;2023-02-03T14:34:04;22.42;;;3.92;;
34872;SDS011;21084;51.098;14.506;2023-02-03T14:36:42;22.80;;;4.72;;
34872;SDS011;21084;51.098;14.506;2023-02-03T14:39:45;24.55;;;5.57;;
34872;SDS011;21084;51.098;14.506;2023-02-03T14:42:44;17.90;;;3.22;;
34872;SDS011;21084;51.098;14.506;2023-02-03T14:48:33;21.13;;;4.22;;
34872;SDS011;21084;51.098;14.506;2023-02-03T14:51:14;15.45;;;3.17;;
34872;SDS011;21084;51.098;14.506;2023-02-03T14:54:04;22.25;;;3.95;;
34872;SDS011;21084;51.098;14.506;2023-02-03T14:56:45;17.23;;;3.15;;
34872;SDS011;21084;51.098;14.506;2023-02-03T14:59:38;21.73;;;3.40;;
34872;SDS011;21084;51.098;14.506;2023-02-03T15:02:14;30.25;;;3.80;;
34872;SDS011;21084;51.098;14.506;2023-02-03T15:04:46;20.67;;;3.72;;
34872;SDS011;21084;51.098;14.506;2023-02-03T15:07:35;20.90;;;3.13;;
34872;SDS011;21084;51.098;14.506;2023-02-03T15:10:13;14.98;;;3.47;;
34872;SDS011;21084;51.098;14.506;2023-02-03T15:12:44;23.38;;;4.35;;
34872;SDS011;21084;51.098;14.506;2023-02-03T15:15:21;24.20;;;3.58;;
34872;SDS011;21084;51.098;14.506;2023-02-03T15:17:52;20.17;;;3.42;;
34872;SDS011;21084;51.098;14.506;2023-02-03T15:20:28;26.00;;;4.32;;
34872;SDS011;21084;51.098;14.506;2023-02-03T15:23:00;26.10;;;3.70;;
34872;SDS011;21084;51.098;14.506;2023-02-03T15:25:29;28.83;;;4.60;;
34872;SDS011;21084;51.098;14.506;2023-02-03T15:28:11;32.08;;;5.82;;
34872;SDS011;21084;51.098;14.506;2023-02-03T15:30:42;38.15;;;8.07;;
34872;SDS011;21084;51.098;14.506;2023-02-03T15:35:43;25.45;;;4.38;;
34872;SDS011;21084;51.098;14.506;2023-02-03T15:38:14;31.25;;;4.32;;
34872;SDS011;21084;51.098;14.506;2023-02-03T15:40:47;26.02;;;4.85;;
34872;SDS011;21084;51.098;14.506;2023-02-03T15:43:20;27.02;;;4.15;;
34872;SDS011;21084;51.098;14.506;2023-02-03T15:45:55;24.35;;;3.72;;
34872;SDS011;21084;51.098;14.506;2023-02-03T15:48:30;29.95;;;4.47;;
34872;SDS011;21084;51.098;14.506;2023-02-03T15:51:06;25.00;;;3.38;;
34872;SDS011;21084;51.098;14.506;2023-02-03T15:53:42;20.77;;;3.42;;
34872;SDS011;21084;51.098;14.506;2023-02-03T15:56:25;28.55;;;4.07;;
34872;SDS011;21084;51.098;14.506;2023-02-03T15:59:02;19.48;;;4.07;;
34872;SDS011;21084;51.098;14.506;2023-02-03T16:01:31;23.17;;;3.67;;